Time;durP1;ratioP1;P1;durP2;ratioP2;P2;SDS_P1;SDS_P2;PMS_P1;PMS_P2;Temp;Humidity;BMP_temperature;BMP_pressure;BME280_temperature;BME280_humidity;BME280_pressure;Samples;Min_cycle;Max_cycle;Signal;HPM_P1;HPM_P2
2022/04/25 00:01:14;;;;;;;16.20;12.70;;;16.10;74.10;;;;;;4871801;29;20453;-78
2022/04/25 00:03:41;;;;;;;16.20;13.05;;;16.10;74.00;;;;;;4877301;29;20063;-77
2022/04/25 00:06:07;;;;;;;18.35;13.52;;;16.10;73.90;;;;;;4876250;29;20044;-77
2022/04/25 00:08:33;;;;;;;16.17;13.80;;;16.00;73.80;;;;;;4870352;29;20416;-78
2022/04/25 00:10:59;;;;;;;16.90;13.43;;;16.00;73.80;;;;;;4876488;29;20072;-79
2022/04/25 00:13:25;;;;;;;21.17;14.15;;;16.00;73.80;;;;;;4885030;29;20064;-78
2022/04/25 00:15:52;;;;;;;17.55;13.38;;;16.00;73.90;;;;;;4870409;29;20047;-78
2022/04/25 00:18:19;;;;;;;17.20;13.45;;;16.00;73.90;;;;;;4857679;29;20037;-79
2022/04/25 00:20:45;;;;;;;18.23;13.88;;;15.90;74.00;;;;;;4857797;29;20402;-80
2022/04/25 00:23:11;;;;;;;20.23;14.38;;;15.90;74.00;;;;;;4866507;29;20093;-78
2022/04/25 00:25:37;;;;;;;16.48;13.18;;;15.90;74.00;;;;;;4890302;29;20429;-79
2022/04/25 00:28:04;;;;;;;16.55;14.32;;;15.90;74.10;;;;;;4877823;29;20065;-78
2022/04/25 00:30:30;;;;;;;20.48;14.38;;;15.90;74.10;;;;;;4877875;29;20041;-79
2022/04/25 00:32:57;;;;;;;18.55;13.75;;;15.90;74.10;;;;;;4887115;29;20033;-78
2022/04/25 00:35:24;;;;;;;19.38;14.68;;;15.90;74.20;;;;;;4877330;29;20041;-78
2022/04/25 00:37:50;;;;;;;20.27;15.70;;;15.90;74.20;;;;;;4868325;29;20517;-78
2022/04/25 00:40:21;;;;;;;19.83;15.00;;;15.90;74.20;;;;;;4871616;29;20032;-79
2022/04/25 00:42:48;;;;;;;19.40;15.30;;;15.90;74.30;;;;;;4872290;29;20033;-77
2022/04/25 00:45:15;;;;;;;17.60;14.68;;;15.90;74.20;;;;;;4868927;29;20057;-79
2022/04/25 00:47:42;;;;;;;17.77;14.40;;;15.80;74.20;;;;;;4885467;29;20184;-78
2022/04/25 00:50:09;;;;;;;21.23;15.07;;;15.90;74.20;;;;;;4853327;29;20097;-78
2022/04/25 00:52:36;;;;;;;21.30;15.70;;;15.90;74.30;;;;;;4872405;29;20072;-77
2022/04/25 00:55:07;;;;;;;22.52;16.17;;;15.80;74.20;;;;;;4889561;29;20621;-77
2022/04/25 00:57:33;;;;;;;22.38;16.02;;;15.90;74.40;;;;;;4869882;29;20055;-78
2022/04/25 01:00:00;;;;;;;20.58;15.48;;;15.80;74.30;;;;;;4852710;29;20508;-77
2022/04/25 01:02:28;;;;;;;22.65;16.17;;;15.90;74.30;;;;;;4866080;29;20101;-78
2022/04/25 01:04:57;;;;;;;20.48;15.43;;;15.80;74.30;;;;;;4874514;29;20033;-79
2022/04/25 01:07:23;;;;;;;21.15;15.82;;;15.80;74.30;;;;;;4872637;29;20040;-78
2022/04/25 01:09:49;;;;;;;20.60;15.60;;;15.80;74.30;;;;;;4870702;29;20424;-78
2022/04/25 01:12:15;;;;;;;21.88;15.63;;;15.90;74.40;;;;;;4866650;29;20041;-79
2022/04/25 01:14:41;;;;;;;20.52;15.07;;;15.80;74.40;;;;;;4881426;29;20164;-77
2022/04/25 01:17:08;;;;;;;23.55;16.42;;;15.80;74.40;;;;;;4880415;29;20036;-78
2022/04/25 01:19:34;;;;;;;22.00;16.55;;;15.80;74.40;;;;;;4876459;29;20037;-79
2022/04/25 01:22:06;;;;;;;22.13;15.68;;;15.80;74.50;;;;;;4903036;29;20048;-78
2022/04/25 01:27:18;;;;;;;20.45;15.90;;;15.80;74.60;;;;;;4886171;29;20068;-78
2022/04/25 01:29:48;;;;;;;21.70;15.35;;;15.80;74.60;;;;;;4876444;29;20047;-79
2022/04/25 01:32:15;;;;;;;21.20;15.95;;;15.80;74.60;;;;;;4868082;29;20040;-80
2022/04/25 01:34:42;;;;;;;21.20;15.70;;;15.80;74.60;;;;;;4843454;29;20041;-79
2022/04/25 01:37:09;;;;;;;20.33;15.85;;;15.80;74.60;;;;;;4869199;29;20034;-79
2022/04/25 01:39:37;;;;;;;19.58;15.18;;;15.80;74.60;;;;;;4877372;29;20040;-79
2022/04/25 01:42:05;;;;;;;20.92;14.93;;;15.80;74.50;;;;;;4856344;29;20072;-79
2022/04/25 01:44:31;;;;;;;19.55;15.15;;;15.80;74.60;;;;;;4883871;29;20041;-79
2022/04/25 01:46:57;;;;;;;18.17;15.05;;;15.80;74.70;;;;;;4864077;29;20049;-79
2022/04/25 01:49:24;;;;;;;19.05;14.00;;;15.80;74.70;;;;;;4874869;29;20044;-79
2022/04/25 01:51:50;;;;;;;20.40;14.95;;;15.80;74.70;;;;;;4876285;29;20032;-79
2022/04/25 01:54:25;;;;;;;19.70;15.45;;;15.80;74.70;;;;;;4872583;29;20128;-79
2022/04/25 01:56:55;;;;;;;17.55;14.23;;;15.80;74.70;;;;;;4856323;29;20077;-79
2022/04/25 01:59:23;;;;;;;21.15;14.27;;;15.80;74.70;;;;;;4872369;29;20038;-79
2022/04/25 02:01:51;;;;;;;18.42;14.90;;;15.80;74.70;;;;;;4873637;29;20049;-79
2022/04/25 02:04:19;;;;;;;18.85;14.30;;;15.80;74.70;;;;;;4883796;29;20072;-80
2022/04/25 02:06:46;;;;;;;20.77;14.93;;;15.80;74.70;;;;;;4856056;29;20085;-78
2022/04/25 02:09:12;;;;;;;21.02;15.23;;;15.80;74.70;;;;;;4886138;29;20113;-79
2022/04/25 02:11:38;;;;;;;17.73;14.10;;;15.80;74.70;;;;;;4863113;29;20048;-79
2022/04/25 02:14:04;;;;;;;17.05;13.70;;;15.80;74.60;;;;;;4879661;29;20039;-78
2022/04/25 02:16:31;;;;;;;15.90;13.25;;;15.80;74.70;;;;;;4885633;29;20046;-79
2022/04/25 02:18:57;;;;;;;18.48;14.05;;;15.80;74.70;;;;;;4869052;29;20040;-78
2022/04/25 02:21:23;;;;;;;15.80;12.93;;;15.80;74.60;;;;;;4856490;29;20051;-79
2022/04/25 02:23:49;;;;;;;17.52;13.02;;;15.80;74.60;;;;;;4884966;29;20136;-79
2022/04/25 02:26:15;;;;;;;16.52;12.73;;;15.80;74.50;;;;;;4862482;29;20033;-79
2022/04/25 02:28:41;;;;;;;17.88;12.70;;;15.80;75.10;;;;;;4873040;29;20040;-79
2022/04/25 02:31:09;;;;;;;16.10;12.70;;;15.80;74.50;;;;;;4886589;29;20028;-80
2022/04/25 02:33:36;;;;;;;13.80;11.05;;;15.80;74.40;;;;;;4869014;29;20033;-79
2022/04/25 02:36:06;;;;;;;14.38;11.55;;;15.80;74.20;;;;;;4883540;29;20076;-78
2022/04/25 02:38:34;;;;;;;13.40;10.40;;;15.80;74.20;;;;;;4883201;29;20040;-79
2022/04/25 02:41:05;;;;;;;13.02;10.38;;;15.80;74.00;;;;;;4882834;29;20160;-79
2022/04/25 02:43:42;;;;;;;12.30;9.95;;;15.80;73.90;;;;;;4866884;29;20037;-79
2022/04/25 02:46:11;;;;;;;12.82;9.73;;;15.80;73.70;;;;;;4870958;29;20132;-79
2022/04/25 02:48:38;;;;;;;12.18;10.27;;;15.80;73.60;;;;;;4869301;29;20044;-81
2022/04/25 02:51:05;;;;;;;11.00;8.68;;;15.80;73.50;;;;;;4884298;29;20033;-79
2022/04/25 02:53:31;;;;;;;12.75;8.88;;;15.80;73.40;;;;;;4877004;29;20552;-80
2022/04/25 02:55:58;;;;;;;11.55;9.20;;;15.80;73.40;;;;;;4874617;29;20101;-79
2022/04/25 02:58:25;;;;;;;11.20;9.02;;;15.80;73.30;;;;;;4882827;29;20210;-80
2022/04/25 03:00:52;;;;;;;12.68;8.90;;;15.80;73.30;;;;;;4871330;29;20082;-80
2022/04/25 03:03:20;;;;;;;12.20;9.35;;;15.80;73.30;;;;;;4840319;29;20048;-80
2022/04/25 03:05:50;;;;;;;12.45;9.40;;;15.80;73.30;;;;;;4835529;29;20044;-79
2022/04/25 03:08:19;;;;;;;12.20;8.90;;;15.80;73.20;;;;;;4878651;29;20044;-79
2022/04/25 03:10:46;;;;;;;10.27;8.90;;;15.80;73.20;;;;;;4865682;29;20390;-79
2022/04/25 03:13:14;;;;;;;12.18;8.50;;;15.90;73.10;;;;;;4867289;29;20063;-79
2022/04/25 03:15:40;;;;;;;10.15;8.13;;;15.90;73.00;;;;;;4874112;29;20755;-79
2022/04/25 03:18:07;;;;;;;12.45;8.80;;;15.90;72.80;;;;;;4871227;29;20045;-79
2022/04/25 03:20:34;;;;;;;11.75;8.55;;;15.90;72.70;;;;;;4880294;29;20068;-79
2022/04/25 03:23:00;;;;;;;11.50;8.02;;;15.90;72.60;;;;;;4867021;29;20038;-79
2022/04/25 03:25:26;;;;;;;12.02;8.07;;;15.90;72.60;;;;;;4868180;29;20105;-79
2022/04/25 03:27:53;;;;;;;8.73;7.45;;;15.90;72.50;;;;;;4887478;29;20442;-80
2022/04/25 03:30:19;;;;;;;9.43;7.60;;;15.90;72.40;;;;;;4856685;29;20041;-79
2022/04/25 03:32:47;;;;;;;10.57;7.55;;;15.90;72.40;;;;;;4895958;29;20092;-79
2022/04/25 03:35:14;;;;;;;9.82;7.40;;;15.80;72.40;;;;;;4871494;29;20474;-81
2022/04/25 03:37:40;;;;;;;10.35;7.40;;;15.90;72.40;;;;;;4866660;29;20587;-80
2022/04/25 03:40:09;;;;;;;8.23;6.65;;;15.90;72.40;;;;;;4857497;29;20039;-80
2022/04/25 03:42:39;;;;;;;11.38;7.47;;;15.90;72.30;;;;;;4877453;29;20433;-80
2022/04/25 03:45:11;;;;;;;9.38;6.55;;;15.80;72.30;;;;;;4881595;29;20033;-80
2022/04/25 03:47:38;;;;;;;11.23;7.25;;;15.90;72.40;;;;;;4839705;29;20069;-78
2022/04/25 03:50:10;;;;;;;8.38;6.57;;;15.90;72.40;;;;;;4877554;29;20044;-81
2022/04/25 03:52:41;;;;;;;8.60;6.25;;;15.90;72.50;;;;;;4879599;29;20037;-81
2022/04/25 03:57:54;;;;;;;7.68;6.10;;;16.00;73.10;;;;;;4872612;29;20036;-81
2022/04/25 04:00:20;;;;;;;9.23;6.13;;;16.00;72.30;;;;;;4854278;29;20051;-82
2022/04/25 04:02:46;;;;;;;7.85;5.88;;;16.00;72.20;;;;;;4878576;29;20682;-83
2022/04/25 04:05:12;;;;;;;7.88;5.90;;;16.10;72.20;;;;;;4877662;29;20045;-83
2022/04/25 04:07:40;;;;;;;8.38;6.00;;;16.10;72.00;;;;;;4869618;29;20049;-82
2022/04/25 04:10:07;;;;;;;7.55;5.55;;;16.10;71.90;;;;;;4838979;29;20524;-81
2022/04/25 04:12:36;;;;;;;6.05;5.40;;;16.20;71.90;;;;;;4885234;29;20025;-81
2022/04/25 04:15:04;;;;;;;6.95;5.40;;;16.20;71.60;;;;;;4857169;29;20038;-81
2022/04/25 04:17:31;;;;;;;8.27;5.85;;;16.30;71.50;;;;;;4866516;29;20049;-81
2022/04/25 04:19:57;;;;;;;6.18;5.10;;;16.40;71.30;;;;;;4858341;29;20040;-81
2022/04/25 04:22:28;;;;;;;8.35;5.32;;;16.40;71.10;;;;;;4870763;29;20063;-82
2022/04/25 04:24:59;;;;;;;8.27;5.28;;;16.50;71.00;;;;;;4866794;29;20033;-80
2022/04/25 04:27:25;;;;;;;7.07;4.78;;;16.50;70.70;;;;;;4882915;29;20033;-81
2022/04/25 04:29:51;;;;;;;5.72;4.72;;;16.50;70.60;;;;;;4859328;29;20041;-81
2022/04/25 04:32:17;;;;;;;5.72;5.13;;;16.60;70.50;;;;;;4869974;29;20037;-82
2022/04/25 04:34:43;;;;;;;5.93;4.85;;;16.70;70.40;;;;;;4857360;29;20037;-82
2022/04/25 04:37:09;;;;;;;7.65;4.97;;;16.80;70.10;;;;;;4842538;29;20380;-82
2022/04/25 04:39:35;;;;;;;6.05;5.20;;;17.00;69.90;;;;;;4858726;29;20033;-85
2022/04/25 04:42:02;;;;;;;6.82;4.60;;;17.10;69.50;;;;;;4857933;29;20085;-83
2022/04/25 04:44:28;;;;;;;6.03;5.10;;;17.10;69.10;;;;;;4878588;29;20044;-84
2022/04/25 04:46:54;;;;;;;6.18;4.50;;;17.30;68.90;;;;;;4884930;29;20408;-81
2022/04/25 04:49:20;;;;;;;5.00;4.50;;;17.40;68.80;;;;;;4879924;29;20794;-81
2022/04/25 04:51:45;;;;;;;4.47;4.05;;;17.50;68.40;;;;;;4873140;29;20037;-84
2022/04/25 04:54:11;;;;;;;5.93;4.53;;;17.60;68.20;;;;;;4883718;29;20963;-82
2022/04/25 04:56:37;;;;;;;4.35;3.95;;;17.70;68.10;;;;;;4875661;29;20085;-83
2022/04/25 04:59:05;;;;;;;5.50;4.25;;;17.70;68.00;;;;;;4874986;29;20036;-84
2022/04/25 05:01:31;;;;;;;6.38;4.35;;;17.70;67.80;;;;;;4868146;29;20077;-85
2022/04/25 05:03:58;;;;;;;11.18;5.72;;;17.80;67.90;;;;;;4872845;29;20037;-84
2022/04/25 05:06:28;;;;;;;7.07;5.63;;;17.80;67.60;;;;;;4886824;29;20043;-86
2022/04/25 05:08:55;;;;;;;7.55;5.75;;;17.80;67.30;;;;;;4873379;29;20144;-87
2022/04/25 05:11:21;;;;;;;8.57;6.22;;;18.10;67.00;;;;;;4877934;29;20028;-86
2022/04/25 05:13:48;;;;;;;8.30;5.60;;;18.20;66.50;;;;;;4883949;29;20501;-85
2022/04/25 05:16:14;;;;;;;5.80;5.20;;;18.40;66.00;;;;;;4868833;29;20033;-85
2022/04/25 05:18:40;;;;;;;6.20;4.93;;;18.60;65.70;;;;;;4871745;29;20041;-85
2022/04/25 05:21:06;;;;;;;5.70;4.88;;;18.70;65.40;;;;;;4885161;29;20266;-80
2022/04/25 05:23:32;;;;;;;5.80;5.00;;;18.80;64.90;;;;;;4878131;29;20041;-81
2022/04/25 05:25:58;;;;;;;4.80;4.32;;;18.90;64.80;;;;;;4876869;29;20040;-82
2022/04/25 05:28:28;;;;;;;6.93;5.30;;;19.00;64.50;;;;;;4871624;29;20073;-82
2022/04/25 05:30:54;;;;;;;6.35;5.40;;;18.90;64.00;;;;;;4852661;29;20410;-81
2022/04/25 05:33:20;;;;;;;7.72;5.07;;;18.90;63.90;;;;;;4888510;29;20041;-80
2022/04/25 05:35:46;;;;;;;6.05;5.07;;;18.70;63.70;;;;;;4875565;29;20576;-81
2022/04/25 05:38:12;;;;;;;8.32;5.75;;;18.60;63.90;;;;;;4851774;29;20043;-81
2022/04/25 05:40:40;;;;;;;6.05;5.15;;;18.50;63.90;;;;;;4857271;29;20140;-81
2022/04/25 05:43:07;;;;;;;6.18;5.38;;;18.40;63.80;;;;;;4868052;29;20037;-80
2022/04/25 05:45:33;;;;;;;13.85;9.50;;;18.30;63.90;;;;;;4860055;29;20035;-80
2022/04/25 05:48:00;;;;;;;12.25;8.95;;;18.20;64.10;;;;;;4873011;29;20045;-80
2022/04/25 05:53:25;;;;;;;9.80;7.28;;;18.10;64.40;;;;;;4878255;29;20592;-81
2022/04/25 05:55:51;;;;;;;9.25;7.35;;;18.00;64.40;;;;;;4868397;29;20129;-80
2022/04/25 05:58:18;;;;;;;8.68;6.78;;;18.00;64.60;;;;;;4850414;29;20496;-79
2022/04/25 06:00:44;;;;;;;7.18;6.35;;;17.90;64.80;;;;;;4868883;29;20148;-81
2022/04/25 06:03:10;;;;;;;6.60;5.82;;;17.90;64.90;;;;;;4881994;29;20601;-81
2022/04/25 06:05:37;;;;;;;8.80;6.50;;;17.90;64.90;;;;;;4875382;29;20036;-81
2022/04/25 06:08:04;;;;;;;6.68;5.50;;;17.90;64.80;;;;;;4873805;29;20036;-80
2022/04/25 06:10:30;;;;;;;7.70;5.80;;;17.90;64.60;;;;;;4883904;29;20101;-79
2022/04/25 06:12:56;;;;;;;8.75;5.97;;;17.90;64.50;;;;;;4867150;29;20116;-79
2022/04/25 06:15:24;;;;;;;7.72;5.70;;;18.00;64.60;;;;;;4886155;29;20037;-78
2022/04/25 06:17:51;;;;;;;8.73;5.85;;;18.00;64.60;;;;;;4873123;29;20061;-79
2022/04/25 06:20:18;;;;;;;8.60;5.22;;;18.10;64.50;;;;;;4875340;29;20464;-77
2022/04/25 06:22:56;;;;;;;8.05;5.15;;;18.10;64.20;;;;;;4894567;29;20037;-78
2022/04/25 06:25:23;;;;;;;7.65;4.90;;;18.20;64.10;;;;;;4869548;29;20422;-78
2022/04/25 06:27:49;;;;;;;6.45;5.75;;;18.10;64.00;;;;;;4885640;29;20037;-78
2022/04/25 06:30:15;;;;;;;9.95;7.30;;;18.10;63.80;;;;;;4869078;29;20041;-78
2022/04/25 06:32:41;;;;;;;8.45;5.85;;;18.00;63.80;;;;;;4877774;29;20109;-80
2022/04/25 06:35:08;;;;;;;6.63;5.45;;;18.00;63.80;;;;;;4878667;29;20053;-77
2022/04/25 06:37:34;;;;;;;9.15;5.68;;;18.00;65.00;;;;;;4871348;29;20036;-80
2022/04/25 06:40:00;;;;;;;10.15;5.80;;;18.10;66.20;;;;;;4885185;29;20043;-80
2022/04/25 06:42:26;;;;;;;7.30;5.35;;;18.20;66.40;;;;;;4855387;29;20067;-78
2022/04/25 06:44:53;;;;;;;6.22;4.60;;;18.30;65.20;;;;;;4880000;29;20040;-78
2022/04/25 06:47:18;;;;;;;8.05;5.03;;;18.50;64.70;;;;;;4876150;29;20132;-79
2022/04/25 06:49:44;;;;;;;5.47;4.85;;;18.60;64.90;;;;;;4872125;29;20516;-78
2022/04/25 06:52:10;;;;;;;7.03;5.03;;;18.80;64.30;;;;;;4882862;29;20041;-79
2022/04/25 06:54:37;;;;;;;8.35;5.63;;;19.00;63.70;;;;;;4868129;29;20124;-79
2022/04/25 06:57:04;;;;;;;9.25;5.18;;;19.10;63.20;;;;;;4854846;29;20037;-79
2022/04/25 06:59:30;;;;;;;9.75;5.28;;;19.20;62.70;;;;;;4883170;29;20043;-78
2022/04/25 07:01:56;;;;;;;7.30;5.03;;;19.40;62.10;;;;;;4878095;29;20317;-77
2022/04/25 07:04:23;;;;;;;7.57;5.15;;;19.60;61.70;;;;;;4869245;29;20289;-77
2022/04/25 07:06:49;;;;;;;9.88;5.43;;;19.70;61.40;;;;;;4874430;29;20029;-76
2022/04/25 07:09:15;;;;;;;8.68;5.40;;;19.90;60.90;;;;;;4866616;29;20029;-78
2022/04/25 07:11:43;;;;;;;6.22;5.28;;;19.90;60.20;;;;;;4877896;29;20037;-78
2022/04/25 07:14:14;;;;;;;5.82;4.50;;;20.10;60.00;;;;;;4877044;29;20033;-78
2022/04/25 07:16:45;;;;;;;7.20;5.22;;;20.20;59.80;;;;;;4854360;29;20084;-77
2022/04/25 07:19:12;;;;;;;7.18;4.38;;;20.40;59.80;;;;;;4881078;29;20044;-78
2022/04/25 07:29:52;;;;;;;5.50;4.20;;;20.90;58.10;;;;;;4859978;29;20034;-78
2022/04/25 07:32:21;;;;;;;4.88;4.43;;;21.10;58.40;;;;;;4868212;29;20452;-79
2022/04/25 07:34:47;;;;;;;5.88;4.50;;;21.10;58.00;;;;;;4874550;29;20073;-79
2022/04/25 07:37:18;;;;;;;7.15;4.90;;;21.20;57.20;;;;;;4883670;29;20038;-78
2022/04/25 07:39:45;;;;;;;8.75;4.45;;;21.20;56.70;;;;;;4866431;29;20037;-79
2022/04/25 07:42:12;;;;;;;5.80;4.45;;;21.20;57.30;;;;;;4850896;29;20033;-79
2022/04/25 07:44:38;;;;;;;7.60;4.20;;;21.20;56.50;;;;;;4879883;29;20036;-79
2022/04/25 07:47:05;;;;;;;7.57;4.10;;;21.20;56.30;;;;;;4875321;29;20049;-79
2022/04/25 07:49:33;;;;;;;6.15;4.00;;;21.20;56.80;;;;;;4869986;29;20048;-79
2022/04/25 07:52:00;;;;;;;7.53;4.10;;;21.20;56.70;;;;;;4884481;29;20036;-80
2022/04/25 07:54:26;;;;;;;7.45;4.63;;;21.20;56.60;;;;;;4870437;29;20044;-80
2022/04/25 07:56:52;;;;;;;6.22;4.22;;;21.10;55.70;;;;;;4879069;29;20136;-79
2022/04/25 07:59:19;;;;;;;8.40;4.47;;;21.10;56.10;;;;;;4875697;29;20259;-79
2022/04/25 08:01:46;;;;;;;6.68;4.70;;;21.00;56.50;;;;;;4872984;29;20515;-79
2022/04/25 08:04:12;;;;;;;6.40;4.60;;;21.00;56.60;;;;;;4884619;29;20412;-79
2022/04/25 08:06:38;;;;;;;5.80;4.63;;;20.90;56.40;;;;;;4860809;29;20075;-79
2022/04/25 08:09:05;;;;;;;7.32;5.10;;;20.90;56.40;;;;;;4889760;29;20041;-79
2022/04/25 08:11:32;;;;;;;7.10;5.47;;;20.80;56.30;;;;;;4876121;29;20513;-79
2022/04/25 08:19:30;;;;;;;7.72;5.70;;;20.70;56.50;;;;;;4871342;29;20059;-79
2022/04/25 08:21:57;;;;;;;8.25;5.20;;;20.60;56.20;;;;;;4872355;29;20088;-79
2022/04/25 08:24:23;;;;;;;6.68;5.43;;;20.60;56.40;;;;;;4841523;29;20421;-78
2022/04/25 08:26:49;;;;;;;8.85;5.03;;;20.50;56.10;;;;;;4896448;29;20041;-78
2022/04/25 08:29:15;;;;;;;7.18;5.40;;;20.50;56.20;;;;;;4879599;29;20076;-79
2022/04/25 08:31:41;;;;;;;10.48;5.75;;;20.50;56.60;;;;;;4876214;29;20040;-80
2022/04/25 08:34:09;;;;;;;5.65;4.85;;;20.50;56.60;;;;;;4886606;29;20049;-80
2022/04/25 08:36:36;;;;;;;8.73;5.57;;;20.50;56.90;;;;;;4854209;29;20044;-80
2022/04/25 08:39:03;;;;;;;22.77;15.77;;;20.40;56.80;;;;;;4883996;29;20129;-79
2022/04/25 08:41:47;;;;;;;16.00;11.52;;;20.40;57.00;;;;;;4876760;29;20488;-78
2022/04/25 08:44:17;;;;;;;14.70;9.50;;;20.40;57.00;;;;;;4877296;29;20045;-79
2022/04/25 08:46:55;;;;;;;10.43;7.25;;;20.40;56.80;;;;;;4881839;29;20544;-78
2022/04/25 08:49:22;;;;;;;10.15;6.57;;;20.40;56.70;;;;;;4870119;29;20536;-79
2022/04/25 08:51:49;;;;;;;7.05;5.72;;;20.30;56.40;;;;;;4888127;29;20036;-78
2022/04/25 08:54:16;;;;;;;8.57;6.30;;;20.30;56.70;;;;;;4843242;29;20064;-78
2022/04/25 08:56:42;;;;;;;6.80;5.65;;;20.30;56.70;;;;;;4881593;29;20124;-78
2022/04/25 08:59:10;;;;;;;9.77;5.90;;;20.30;56.70;;;;;;4878875;29;20044;-79
2022/04/25 09:01:39;;;;;;;9.30;6.00;;;20.20;56.20;;;;;;4860926;29;20041;-79
2022/04/25 09:04:05;;;;;;;7.03;5.97;;;20.20;56.20;;;;;;4902593;29;20064;-79
2022/04/25 09:06:31;;;;;;;10.60;6.28;;;20.10;56.50;;;;;;4878609;29;20048;-80
2022/04/25 09:08:58;;;;;;;9.50;5.82;;;20.10;56.50;;;;;;4894244;29;20036;-79
2022/04/25 09:14:11;;;;;;;12.35;6.55;;;20.10;56.60;;;;;;4886617;29;20413;-78
2022/04/25 09:16:38;;;;;;;11.48;6.50;;;20.10;56.70;;;;;;4885673;29;20097;-78
2022/04/25 09:19:04;;;;;;;11.32;6.35;;;20.00;56.80;;;;;;4886972;29;20040;-78
2022/04/25 09:21:31;;;;;;;8.73;6.40;;;20.00;56.30;;;;;;4886307;29;20436;-78
2022/04/25 09:23:59;;;;;;;8.18;6.32;;;20.00;56.10;;;;;;4870457;29;20056;-79
2022/04/25 09:26:29;;;;;;;8.77;6.60;;;20.00;56.00;;;;;;4900022;29;20067;-79
2022/04/25 09:28:58;;;;;;;9.52;6.45;;;20.00;55.80;;;;;;4886358;29;20032;-79
2022/04/25 09:31:25;;;;;;;8.82;6.25;;;20.00;55.80;;;;;;4886771;29;20736;-78
2022/04/25 09:33:51;;;;;;;10.80;6.00;;;19.90;55.80;;;;;;4873569;29;20041;-78
2022/04/25 09:36:17;;;;;;;7.63;6.28;;;19.90;55.70;;;;;;4873849;29;20436;-78
2022/04/25 09:38:45;;;;;;;8.05;6.82;;;19.90;55.60;;;;;;4885022;29;20049;-76
2022/04/25 09:41:14;;;;;;;9.43;6.55;;;19.90;55.60;;;;;;4885591;29;20062;-83
2022/04/25 09:43:47;;;;;;;8.27;5.72;;;19.90;55.80;;;;;;4876554;29;20547;-81
2022/04/25 09:46:15;;;;;;;6.82;5.70;;;19.90;57.10;;;;;;4889454;29;21645;-79
2022/04/25 09:49:03;;;;;;;8.00;5.90;;;19.90;57.70;;;;;;4888435;29;20131;-77
2022/04/25 09:51:29;;;;;;;8.57;6.03;;;20.10;58.40;;;;;;4887124;29;20063;-80
2022/04/25 09:53:57;;;;;;;7.65;5.85;;;20.20;58.30;;;;;;4886114;29;20128;-79
2022/04/25 09:56:28;;;;;;;7.28;5.30;;;20.20;58.00;;;;;;4886177;29;20048;-78
2022/04/25 09:58:59;;;;;;;8.63;6.00;;;20.30;57.90;;;;;;4888824;29;20060;-79
2022/04/25 10:01:26;;;;;;;7.15;5.88;;;20.40;57.70;;;;;;4885426;29;20053;-77
2022/04/25 10:03:52;;;;;;;7.88;5.53;;;20.40;57.20;;;;;;4888495;29;20161;-77
2022/04/25 10:06:21;;;;;;;8.00;5.50;;;20.50;57.60;;;;;;4869018;29;20076;-77
2022/04/25 10:08:48;;;;;;;6.65;5.28;;;20.50;57.40;;;;;;4885876;29;20423;-78
2022/04/25 10:11:18;;;;;;;11.98;5.55;;;20.50;57.10;;;;;;4885945;29;20039;-79
2022/04/25 10:13:45;;;;;;;9.48;6.93;;;20.60;56.80;;;;;;4886531;29;20470;-78
2022/04/25 10:16:11;;;;;;;11.32;7.10;;;20.60;57.50;;;;;;4869999;29;20033;-77
2022/04/25 10:18:39;;;;;;;10.30;7.10;;;20.60;57.00;;;;;;4886530;29;20044;-77
2022/04/25 10:21:07;;;;;;;8.90;7.57;;;20.70;56.60;;;;;;4885766;29;20063;-79
2022/04/25 10:23:34;;;;;;;10.18;7.90;;;20.70;56.30;;;;;;4884158;29;20540;-78
2022/04/25 10:26:02;;;;;;;10.35;7.10;;;20.70;56.00;;;;;;4883947;29;20048;-78
2022/04/25 10:28:54;;;;;;;19.08;10.98;;;20.70;56.20;;;;;;4870062;29;20040;-78
2022/04/25 10:31:26;;;;;;;13.30;7.03;;;20.70;56.10;;;;;;4885268;29;20025;-78
2022/04/25 10:34:00;;;;;;;11.48;6.82;;;20.70;55.60;;;;;;4887527;29;20037;-78
2022/04/25 10:36:38;;;;;;;10.77;7.60;;;20.80;55.50;;;;;;4886309;29;20528;-78
2022/04/25 10:39:17;;;;;;;8.73;6.53;;;20.80;56.00;;;;;;4885379;29;20550;-77
2022/04/25 10:44:53;;;;;;;8.82;6.68;;;20.80;55.70;;;;;;4885918;29;20048;-77
2022/04/25 10:47:25;;;;;;;7.82;5.65;;;20.80;55.50;;;;;;4888355;29;20041;-78
2022/04/25 10:49:51;;;;;;;9.25;6.00;;;20.80;55.70;;;;;;4886301;29;20040;-77
2022/04/25 10:52:42;;;;;;;8.52;6.47;;;20.90;55.00;;;;;;4884099;29;20096;-77
2022/04/25 10:55:12;;;;;;;7.05;5.90;;;20.90;54.80;;;;;;4885074;29;20489;-78
2022/04/25 10:58:01;;;;;;;5.72;5.22;;;20.90;55.10;;;;;;4886948;29;20033;-78
2022/04/25 11:00:36;;;;;;;10.73;5.60;;;20.90;55.70;;;;;;4885762;29;20080;-78
2022/04/25 11:03:14;;;;;;;9.00;5.70;;;20.90;54.90;;;;;;4883961;29;20043;-77
2022/04/25 11:05:43;;;;;;;5.72;5.10;;;20.90;54.20;;;;;;4884406;29;20376;-78
2022/04/25 11:08:37;;;;;;;8.77;5.60;;;20.90;53.80;;;;;;4883497;29;20040;-79
2022/04/25 11:11:10;;;;;;;10.88;5.32;;;20.90;53.90;;;;;;4887621;29;20519;-78
2022/04/25 11:14:02;;;;;;;6.72;5.47;;;20.90;53.50;;;;;;4884986;29;20079;-78
2022/04/25 11:16:28;;;;;;;5.40;4.82;;;20.90;53.20;;;;;;4882595;29;20512;-78
2022/04/25 11:19:15;;;;;;;10.00;5.07;;;21.00;54.70;;;;;;4886293;29;20040;-79
2022/04/25 11:21:55;;;;;;;7.97;5.13;;;20.90;54.10;;;;;;4885756;29;20048;-78
2022/04/25 11:24:38;;;;;;;6.45;5.40;;;20.90;54.20;;;;;;4886569;29;20068;-77
2022/04/25 11:27:09;;;;;;;6.13;5.35;;;21.00;53.80;;;;;;4885816;29;20477;-76
2022/04/25 11:29:44;;;;;;;6.47;5.13;;;21.00;54.50;;;;;;4888277;29;20543;-80
2022/04/25 11:32:23;;;;;;;6.43;5.28;;;21.00;54.50;;;;;;4872878;29;20528;-78
2022/04/25 11:34:49;;;;;;;7.15;5.30;;;21.00;53.90;;;;;;4884066;29;20492;-77
2022/04/25 11:37:15;;;;;;;5.57;4.82;;;21.00;53.30;;;;;;4883574;29;20516;-78
2022/04/25 11:39:53;;;;;;;5.60;5.05;;;21.00;53.30;;;;;;4890083;29;20040;-77
2022/04/25 11:42:19;;;;;;;8.20;4.60;;;21.00;53.10;;;;;;4888101;29;20046;-77
2022/04/25 11:44:45;;;;;;;5.05;4.55;;;21.00;53.10;;;;;;4860419;29;20044;-77
2022/04/25 11:47:11;;;;;;;7.15;4.75;;;21.10;52.30;;;;;;4889072;29;20429;-77
2022/04/25 11:49:38;;;;;;;6.22;4.55;;;21.00;52.90;;;;;;4890274;29;20041;-77
2022/04/25 11:52:15;;;;;;;5.30;4.30;;;21.10;53.00;;;;;;4888945;29;20486;-77
2022/04/25 11:54:42;;;;;;;5.47;4.40;;;21.10;53.80;;;;;;4894942;29;20076;-77
2022/04/25 11:57:08;;;;;;;4.43;3.90;;;21.10;52.40;;;;;;4893192;29;20045;-76
2022/04/25 11:59:34;;;;;;;9.90;5.32;;;21.10;52.50;;;;;;4900972;29;20047;-78
2022/04/25 12:02:00;;;;;;;6.97;5.05;;;21.10;53.00;;;;;;4896548;29;20041;-77
2022/04/25 12:04:26;;;;;;;8.98;4.65;;;21.10;52.60;;;;;;4898490;29;20040;-77
2022/04/25 12:07:03;;;;;;;8.80;5.60;;;21.10;52.40;;;;;;4899045;29;20044;-78
2022/04/25 12:18:15;;;;;;;9.45;4.63;;;21.20;52.80;;;;;;4897328;29;20045;-77
2022/04/25 12:20:42;;;;;;;8.10;4.60;;;21.10;52.30;;;;;;4882268;29;20037;-78
2022/04/25 12:23:10;;;;;;;4.70;4.28;;;21.20;52.80;;;;;;4894640;29;20057;-77
2022/04/25 12:25:41;;;;;;;8.70;4.82;;;21.20;52.50;;;;;;4890211;29;20033;-77
2022/04/25 12:28:13;;;;;;;4.72;4.13;;;21.20;52.80;;;;;;4888481;29;20033;-77
2022/04/25 12:30:53;;;;;;;5.93;4.20;;;21.20;52.70;;;;;;4888061;29;20037;-77
2022/04/25 12:33:31;;;;;;;11.88;4.30;;;21.20;53.10;;;;;;4879300;29;20033;-78
2022/04/25 12:36:06;;;;;;;5.45;3.95;;;21.20;53.10;;;;;;4876920;29;20072;-77
2022/04/25 12:38:52;;;;;;;4.82;4.30;;;21.20;52.80;;;;;;4889958;29;20090;-77
2022/04/25 12:41:27;;;;;;;8.57;4.40;;;21.20;52.30;;;;;;4875412;29;20037;-79
2022/04/25 12:43:55;;;;;;;9.30;4.15;;;21.20;53.10;;;;;;4894992;29;20055;-78
2022/04/25 12:46:40;;;;;;;5.80;4.65;;;21.20;53.40;;;;;;4897190;29;20055;-78
2022/04/25 12:49:11;;;;;;;4.80;3.78;;;21.20;52.70;;;;;;4895685;29;20033;-77
2022/04/25 12:51:38;;;;;;;5.50;4.18;;;21.20;52.30;;;;;;4897956;29;20040;-77
2022/04/25 12:54:26;;;;;;;6.85;4.72;;;21.20;52.00;;;;;;4896932;29;20040;-78
2022/04/25 12:57:13;;;;;;;6.90;5.50;;;21.10;51.30;;;;;;4896021;29;20037;-76
2022/04/25 12:59:42;;;;;;;13.27;7.90;;;21.10;51.90;;;;;;4880755;29;20049;-77
2022/04/25 13:02:13;;;;;;;11.73;4.93;;;21.10;51.10;;;;;;4897805;29;20059;-77
2022/04/25 13:05:00;;;;;;;8.18;5.90;;;21.10;51.00;;;;;;4897479;29;20141;-77
2022/04/25 13:07:29;;;;;;;8.10;4.78;;;21.10;51.20;;;;;;4895344;29;20348;-77
2022/04/25 13:09:57;;;;;;;8.98;6.45;;;21.10;51.40;;;;;;4897588;29;20088;-78
2022/04/25 13:12:30;;;;;;;13.07;7.95;;;21.10;51.30;;;;;;4895810;29;20060;-77
2022/04/25 13:14:56;;;;;;;11.32;6.57;;;21.10;51.00;;;;;;4888036;29;20128;-77
2022/04/25 13:17:21;;;;;;;9.77;5.57;;;21.00;51.60;;;;;;4876106;29;20810;-77
2022/04/25 13:19:47;;;;;;;5.88;4.95;;;21.10;51.00;;;;;;4875147;29;20040;-77
2022/04/25 13:22:13;;;;;;;7.03;5.15;;;21.10;51.40;;;;;;4885928;29;20064;-77
2022/04/25 13:24:39;;;;;;;8.15;4.63;;;21.10;51.40;;;;;;4889150;29;20495;-76